createdAt,value
2019-06-26T19:02:51.085Z,11.18
2019-06-26T19:05:19.574Z,10.72
2019-06-26T19:07:47.995Z,9.53
2019-06-26T19:10:16.419Z,8.58
2019-06-26T19:12:48.938Z,8.85
2019-06-26T19:15:40.235Z,8.68
2019-06-26T19:18:12.964Z,8.10
2019-06-26T19:20:45.882Z,8.35
2019-06-26T19:23:18.956Z,8.93
2019-06-26T19:25:51.136Z,8.48
2019-06-26T19:28:23.440Z,8.45
2019-06-26T19:33:45.660Z,9.00
2019-06-26T19:36:16.465Z,9.05
2019-06-26T19:38:45.927Z,8.55
2019-06-26T19:44:09.016Z,8.20
2019-06-26T19:47:01.046Z,9.05
2019-06-26T19:49:52.609Z,9.70
2019-06-26T19:52:24.570Z,8.68
2019-06-26T19:57:32.951Z,8.93
2019-06-26T20:00:04.623Z,8.88
2019-06-26T20:02:35.998Z,8.53
2019-06-26T20:05:09.018Z,9.08
2019-06-26T20:07:40.758Z,9.13
2019-06-26T20:10:12.739Z,8.30
2019-06-26T20:12:43.357Z,8.50
2019-06-26T20:15:15.487Z,8.65
2019-06-26T20:17:47.742Z,9.00
2019-06-26T20:20:19.944Z,9.03
2019-06-26T20:22:50.322Z,9.30
2019-06-26T20:25:42.372Z,8.95
2019-06-26T20:28:15.198Z,8.78
2019-06-26T20:30:47.382Z,8.50
2019-06-26T20:33:18.885Z,8.68
2019-06-26T20:35:51.260Z,9.30
2019-06-26T20:38:43.326Z,9.18
2019-06-26T20:41:16.480Z,9.45
2019-06-26T20:43:48.654Z,10.95
2019-06-26T20:46:21.196Z,8.48
2019-06-26T20:48:52.789Z,8.85
2019-06-26T20:51:27.949Z,9.88
2019-06-26T20:54:17.686Z,8.83
2019-06-26T20:56:50.339Z,9.30
2019-06-26T20:59:23.384Z,9.20
2019-06-26T21:01:59.012Z,9.68
2019-06-26T21:04:51.106Z,10.08
2019-06-26T21:07:22.755Z,9.43
2019-06-26T21:09:55.230Z,9.68
2019-06-26T21:12:35.970Z,9.63
2019-06-26T21:15:03.858Z,10.20
2019-06-26T21:17:43.843Z,9.10
2019-06-26T21:20:14.730Z,9.77
2019-06-26T21:22:47.472Z,9.50
2019-06-26T21:25:22.218Z,10.48
2019-06-26T21:27:56.171Z,9.50
2019-06-26T21:30:31.671Z,9.28
2019-06-26T21:33:05.367Z,9.05
2019-06-26T21:35:34.127Z,8.33
2019-06-26T21:38:02.694Z,10.23
2019-06-26T21:40:31.334Z,9.15
2019-06-26T21:42:59.966Z,10.38
2019-06-26T21:45:28.444Z,10.58
2019-06-26T21:47:56.883Z,10.05
2019-06-26T21:50:29.331Z,9.05
2019-06-26T21:52:59.505Z,9.83
2019-06-26T21:55:34.141Z,10.08
2019-06-26T21:57:58.084Z,9.40
2019-06-26T22:00:28.151Z,9.60
2019-06-26T22:02:57.849Z,8.80
2019-06-26T22:05:26.896Z,8.75
2019-06-26T22:07:56.374Z,9.45
2019-06-26T22:10:24.933Z,9.28
2019-06-26T22:12:57.595Z,9.95
2019-06-26T22:15:23.735Z,8.63
2019-06-26T22:17:52.244Z,9.23
2019-06-26T22:20:20.944Z,8.70
2019-06-26T22:22:49.440Z,9.40
2019-06-26T22:25:18.093Z,9.95
2019-06-26T22:27:48.663Z,9.73
2019-06-26T22:30:19.377Z,10.10
2019-06-26T22:32:49.295Z,10.00
2019-06-26T22:35:21.448Z,9.70
2019-06-26T22:40:48.045Z,9.73
2019-06-26T22:43:40.185Z,10.55
2019-06-26T22:46:17.204Z,10.00
2019-06-26T22:48:50.468Z,9.60
2019-06-26T22:51:25.793Z,9.53
2019-06-26T22:53:57.041Z,9.70
2019-06-26T22:56:30.211Z,8.38
2019-06-26T22:59:27.423Z,8.65
2019-06-26T23:01:56.818Z,9.00
2019-06-26T23:04:55.027Z,9.48
2019-06-26T23:07:28.544Z,9.90
2019-06-26T23:10:10.456Z,10.20
2019-06-26T23:12:38.348Z,10.75
2019-06-26T23:15:17.353Z,11.30
2019-06-26T23:17:49.534Z,10.98
2019-06-26T23:20:41.285Z,12.47
2019-06-26T23:23:13.895Z,12.47
2019-06-26T23:26:22.761Z,12.28
2019-06-26T23:28:38.576Z,11.78
2019-06-26T23:31:29.956Z,12.28
2019-06-26T23:34:02.137Z,13.03
2019-06-26T23:36:32.543Z,12.25
2019-06-26T23:39:00.704Z,12.47
2019-06-26T23:41:29.217Z,12.68
2019-06-26T23:44:00.954Z,14.05
2019-06-26T23:46:35.697Z,14.23
2019-06-26T23:49:01.357Z,15.30
2019-06-26T23:51:29.835Z,15.90
2019-06-26T23:53:59.954Z,16.23
2019-06-26T23:56:39.958Z,16.32
2019-06-26T23:59:00.812Z,15.25
